Main page
METAR-TAF:

METAR-TAF

Airports :

Sialkot International Airport

Sialkot, Pakistan

latitude: 32-32N, longitude: 74-22E, elevation: 255 m

Current weather observation

The report was made 11 minutes ago, at 02:00 UTC
Wind 4 kt from the North
Temperature 12°C
Humidity 82%
Pressure 1016 hPa
Visibility: 4000 m
smoke

METAR: OPST 160200Z 36004KT 4000 FU NSC 12/09 Q1016 NOSIG RH82

Time: 07:11 (02:11 UTC)


TAF: missing

Weather observations and forecasts of more than 4000 airports (METAR and TAF reports).

The available stations are represented by yellow and red dots on the map.

Hover mouse over dot to see the name of the station.

Then click to see weather observations and forecasts.

To change the map : click on the green buttons with a black cross to zoom in, on the green button with a dash to zoom out, or on the green arrows for adjacent maps.


METAR-TAF: